This is the latest recevied weather packets stored in our database for station/object PP5EO-15. If no packets are shown the sender has not sent any weather packets the latest 10 day(s).
| Time | Temp. | Humidity | Pressure | Rain* | Wind** | Luminosity | Snow |
|---|---|---|---|---|---|---|---|
| 1777034842 | 39.44° C | 29% | 1018.2 hPa | - | - | - | - |
| 1777034247 | 37.78° C | 32% | 1018.2 hPa | - | - | - | - |
| 1777033652 | 35.56° C | 34% | 1018.3 hPa | - | - | - | - |
| 1777033058 | 35.56° C | 35% | 1018.3 hPa | - | - | - | - |
| 1777032463 | 35° C | 35% | 1018.3 hPa | - | - | - | - |
| 1777031867 | 35.56° C | 35% | 1018.2 hPa | - | - | - | - |
| 1777031272 | 35.56° C | 35% | 1018.2 hPa | - | - | - | - |
| 1777030678 | 35.56° C | 35% | 1018.1 hPa | - | - | - | - |
| 1777030083 | 35.56° C | 36% | 992.1 hPa | - | - | - | - |
| 1777029487 | 33.89° C | 40% | 1018 hPa | - | - | - | - |
| 1777028893 | 32.22° C | 43% | 1018 hPa | - | - | - | - |
| 1777028297 | 31.11° C | 45% | 1018 hPa | - | - | - | - |
| 1777027704 | 31.11° C | 46% | 1018 hPa | - | - | - | - |
| 1777027107 | 29.44° C | 49% | 1017.8 hPa | - | - | - | - |
| 1777026512 | 28.33° C | 52% | 1017.7 hPa | - | - | - | - |
| 1777025917 | 27.78° C | 53% | 1017.6 hPa | - | - | - | - |
| 1777025322 | 27.22° C | 54% | 1017.4 hPa | - | - | - | - |
| 1777024727 | 26.67° C | 54% | 1017.2 hPa | - | - | - | - |
| 1777024132 | 26.67° C | 54% | 1017.1 hPa | - | - | - | - |
| 1777023537 | 26.67° C | 54% | 1016.9 hPa | - | - | - | - |
| 1777022942 | 26.67° C | 53% | 1016.8 hPa | - | - | - | - |
| 1777022347 | 26.67° C | 53% | 1016.6 hPa | - | - | - | - |
| 1777021752 | 26.67° C | 53% | 1016.5 hPa | - | - | - | - |
| 1777021157 | 26.11° C | 53% | 1016.4 hPa | - | - | - | - |
| 1777020562 | 26.11° C | 54% | 1016.2 hPa | - | - | - | - |
* Rain since midnight (hover to see other rain measurements)
** Current wind speed in m/s (hover to see current wind gust speed)